createdAt,value
2019-04-16T00:00:50.546Z,74.97
2019-04-16T00:03:20.228Z,75.33
2019-04-16T00:06:03.032Z,75.71
2019-04-16T00:08:39.333Z,76.02
2019-04-16T00:11:09.535Z,76.41
2019-04-16T00:13:42.645Z,76.80
2019-04-16T00:16:13.106Z,77.10
2019-04-16T00:18:41.257Z,77.42
2019-04-16T00:21:20.071Z,77.96
2019-04-16T00:23:55.834Z,78.44
2019-04-16T00:26:26.787Z,78.90
2019-04-16T00:28:54.588Z,79.07
2019-04-16T00:31:23.016Z,78.92
2019-04-16T00:33:51.476Z,79.07
2019-04-16T00:36:19.944Z,79.00
2019-04-16T00:38:48.389Z,78.85
2019-04-16T00:41:16.832Z,79.43
2019-04-16T00:43:45.299Z,79.96
2019-04-16T00:46:13.878Z,80.40
2019-04-16T00:48:42.339Z,80.59
2019-04-16T00:51:10.924Z,81.07
2019-04-16T00:53:39.761Z,81.47
2019-04-16T00:56:08.648Z,81.75
2019-04-16T00:58:37.077Z,81.97
2019-04-16T01:01:05.553Z,82.24
2019-04-16T01:03:34.045Z,82.54
2019-04-16T01:06:07.026Z,82.68
2019-04-16T01:08:33.011Z,82.81
2019-04-16T01:11:01.455Z,83.06
2019-04-16T01:13:29.912Z,83.01
2019-04-16T01:16:02.479Z,82.91
2019-04-16T01:18:28.512Z,83.45
2019-04-16T01:20:57.018Z,84.21
2019-04-16T01:23:25.437Z,83.89
2019-04-16T01:25:55.662Z,84.37
2019-04-16T01:28:29.417Z,84.28
2019-04-16T01:31:15.724Z,84.50
2019-04-16T01:34:02.007Z,84.72
2019-04-16T01:36:51.376Z,84.88
2019-04-16T01:39:21.919Z,85.04
2019-04-16T01:41:53.287Z,85.22
2019-04-16T01:44:20.540Z,85.74
2019-04-16T01:46:48.982Z,85.74
2019-04-16T01:49:17.421Z,85.96
2019-04-16T01:51:47.480Z,86.06
2019-04-16T01:54:16.066Z,86.08
2019-04-16T01:56:44.508Z,86.17
2019-04-16T01:59:12.966Z,86.16
2019-04-16T02:01:43.387Z,86.41
2019-04-16T02:04:11.665Z,86.26
2019-04-16T02:06:40.123Z,86.32
2019-04-16T02:09:16.070Z,86.64
2019-04-16T02:11:41.494Z,86.75
2019-04-16T02:14:09.016Z,86.87
2019-04-16T02:16:37.457Z,87.19
2019-04-16T02:19:06.023Z,87.36
2019-04-16T02:21:34.782Z,87.41
2019-04-16T02:24:03.280Z,87.90
2019-04-16T02:26:31.705Z,88.20
2019-04-16T02:29:00.166Z,88.35
2019-04-16T02:31:28.614Z,88.46
2019-04-16T02:33:57.034Z,88.63
2019-04-16T02:36:25.601Z,89.02
2019-04-16T02:38:54.048Z,89.28
2019-04-16T02:41:24.477Z,89.72
2019-04-16T02:43:52.646Z,89.84
2019-04-16T02:46:21.156Z,90.03
2019-04-16T02:48:51.371Z,90.09
2019-04-16T02:51:39.789Z,89.92
2019-04-16T02:54:16.775Z,90.05
2019-04-16T02:56:51.562Z,90.57
2019-04-16T02:59:21.997Z,90.48
2019-04-16T03:01:52.647Z,90.71
2019-04-16T03:04:31.531Z,90.78
2019-04-16T03:07:02.699Z,90.93
2019-04-16T03:09:30.289Z,90.95
2019-04-16T03:11:58.726Z,90.97
2019-04-16T03:14:29.984Z,91.23
2019-04-16T03:17:10.603Z,91.73
2019-04-16T03:19:52.569Z,91.90
2019-04-16T03:22:21.017Z,92.06
2019-04-16T03:24:49.694Z,92.21
2019-04-16T03:27:21.853Z,92.57
2019-04-16T03:29:48.318Z,93.22
2019-04-16T03:32:16.818Z,93.42
2019-04-16T03:34:45.320Z,93.43
2019-04-16T03:37:13.837Z,93.68
2019-04-16T03:39:44.717Z,93.98
2019-04-16T03:42:12.448Z,94.37
2019-04-16T03:44:40.884Z,94.71
2019-04-16T03:47:09.307Z,95.18
2019-04-16T03:49:37.760Z,95.40
2019-04-16T03:52:08.801Z,95.80
2019-04-16T03:54:36.394Z,96.14
2019-04-16T03:57:04.899Z,96.30
2019-04-16T03:59:33.273Z,96.87
2019-04-16T04:02:01.736Z,97.24
2019-04-16T04:04:30.542Z,97.33
2019-04-16T04:06:59.008Z,97.59
2019-04-16T04:09:27.543Z,97.79
2019-04-16T04:11:56.046Z,97.94
2019-04-16T04:14:24.574Z,98.19
2019-04-16T04:16:53.027Z,98.28
2019-04-16T04:19:21.558Z,98.66
2019-04-16T04:21:50.693Z,98.80
2019-04-16T04:24:20.150Z,99.04
2019-04-16T04:26:48.637Z,99.11
2019-04-16T04:29:17.110Z,99.29
2019-04-16T04:31:45.576Z,99.19
2019-04-16T04:34:16.815Z,99.16
2019-04-16T04:36:44.914Z,99.07
2019-04-16T04:39:15.675Z,99.29
2019-04-16T04:41:43.529Z,99.39
2019-04-16T04:44:12.041Z,99.33
2019-04-16T04:46:43.292Z,99.42
2019-04-16T04:49:10.611Z,99.58
2019-04-16T04:51:42.506Z,99.38
2019-04-16T04:54:09.405Z,99.40
2019-04-16T04:56:38.042Z,99.48
2019-04-16T04:59:06.828Z,99.58
2019-04-16T05:01:35.256Z,99.49
2019-04-16T05:04:18.931Z,99.43
2019-04-16T05:06:54.423Z,99.21
2019-04-16T05:09:22.139Z,98.95
2019-04-16T05:11:50.613Z,98.81
2019-04-16T05:14:19.032Z,98.74
2019-04-16T05:16:47.513Z,98.75
2019-04-16T05:19:16.110Z,98.49
2019-04-16T05:21:44.541Z,98.56
2019-04-16T05:24:13.080Z,98.29
2019-04-16T05:26:41.507Z,98.20
2019-04-16T05:29:17.044Z,98.19
2019-04-16T05:31:43.736Z,98.13
2019-04-16T05:34:12.227Z,97.84
2019-04-16T05:36:46.561Z,97.76
2019-04-16T05:39:10.848Z,97.64
2019-04-16T05:41:39.366Z,97.41
2019-04-16T05:44:07.816Z,97.08
2019-04-16T05:46:38.340Z,96.79
2019-04-16T05:49:06.519Z,96.50
2019-04-16T05:51:34.999Z,96.21
2019-04-16T05:54:08.412Z,96.16
2019-04-16T05:56:39.807Z,95.28
2019-04-16T05:59:08.345Z,92.60
2019-04-16T06:01:50.121Z,90.07
2019-04-16T06:04:18.788Z,88.99
2019-04-16T06:06:47.215Z,87.36
2019-04-16T06:09:15.668Z,85.79
2019-04-16T06:11:44.404Z,85.02
2019-04-16T06:14:26.310Z,82.09
2019-04-16T06:17:05.886Z,80.99
2019-04-16T06:19:52.316Z,80.94
2019-04-16T06:22:28.313Z,78.56
2019-04-16T06:25:09.238Z,76.60
2019-04-16T06:27:37.783Z,76.45
2019-04-16T06:30:17.608Z,75.10
2019-04-16T06:32:50.354Z,75.71
2019-04-16T06:35:42.912Z,75.43
2019-04-16T06:38:08.433Z,74.05
2019-04-16T06:40:47.183Z,72.84
2019-04-16T06:43:17.457Z,72.91
2019-04-16T06:46:02.520Z,72.96
2019-04-16T06:48:35.468Z,72.97
2019-04-16T06:51:05.610Z,72.28
2019-04-16T06:53:54.009Z,73.95
2019-04-16T06:56:23.919Z,72.14
2019-04-16T06:58:57.210Z,72.33
2019-04-16T07:01:36.736Z,71.02
2019-04-16T07:04:06.550Z,69.67
2019-04-16T07:06:43.597Z,69.88
2019-04-16T07:09:25.747Z,71.01
2019-04-16T07:11:55.563Z,71.79
2019-04-16T07:14:23.988Z,71.07
2019-04-16T07:16:52.443Z,72.43
2019-04-16T07:19:20.884Z,70.82
2019-04-16T07:21:49.956Z,69.06
2019-04-16T07:24:22.264Z,68.87
2019-04-16T07:26:48.913Z,67.77
2019-04-16T07:29:22.303Z,66.32
2019-04-16T07:31:53.669Z,65.69
2019-04-16T07:34:33.467Z,63.81
2019-04-16T07:37:19.164Z,63.91
2019-04-16T07:39:49.261Z,63.85
2019-04-16T07:42:35.781Z,63.31
2019-04-16T07:45:26.993Z,61.68
2019-04-16T07:48:00.235Z,63.37
2019-04-16T07:50:46.806Z,63.41
2019-04-16T07:53:19.638Z,60.39
2019-04-16T07:55:49.662Z,60.11
2019-04-16T07:58:18.183Z,58.54
2019-04-16T08:00:46.894Z,57.75
2019-04-16T08:03:15.460Z,56.48
2019-04-16T08:05:43.897Z,57.37
2019-04-16T08:08:12.418Z,56.30
2019-04-16T08:10:40.853Z,56.54
2019-04-16T08:13:13.930Z,56.90
2019-04-16T08:15:41.217Z,55.81
2019-04-16T08:18:09.660Z,54.18
2019-04-16T08:20:38.139Z,52.08
2019-04-16T08:23:24.362Z,52.01
2019-04-16T08:26:01.889Z,51.31
2019-04-16T08:28:23.074Z,52.45
2019-04-16T08:30:51.523Z,51.77
2019-04-16T08:33:20.119Z,52.04
2019-04-16T08:35:48.574Z,53.07
2019-04-16T08:38:17.087Z,53.22
2019-04-16T08:40:46.329Z,53.29
2019-04-16T08:43:15.527Z,53.52
2019-04-16T08:45:43.981Z,53.49
2019-04-16T08:48:16.889Z,53.64
2019-04-16T08:50:42.661Z,53.74
2019-04-16T08:53:14.248Z,54.42
2019-04-16T08:55:41.462Z,55.91
2019-04-16T08:58:12.444Z,52.30
2019-04-16T09:00:40.567Z,54.25
2019-04-16T09:03:09.009Z,51.65
2019-04-16T09:05:41.337Z,54.73
2019-04-16T09:08:12.882Z,52.85
2019-04-16T09:10:39.526Z,51.89
2019-04-16T09:13:09.579Z,51.92
2019-04-16T09:15:38.994Z,51.96
2019-04-16T09:18:24.962Z,51.48
2019-04-16T09:20:53.382Z,51.47
2019-04-16T09:23:22.800Z,52.46
2019-04-16T09:26:13.257Z,52.28
2019-04-16T09:28:36.751Z,53.11
2019-04-16T09:31:23.334Z,51.54
2019-04-16T09:33:53.421Z,51.96
2019-04-16T09:36:40.074Z,51.38
2019-04-16T09:39:12.993Z,51.96
2019-04-16T09:41:42.614Z,50.32
2019-04-16T09:44:11.127Z,51.68
2019-04-16T09:46:50.865Z,50.70
2019-04-16T09:49:09.767Z,48.46
2019-04-16T09:51:38.288Z,49.71
2019-04-16T09:54:06.815Z,48.78
2019-04-16T09:56:37.048Z,48.00
2019-04-16T09:59:07.531Z,47.69
2019-04-16T10:01:46.644Z,45.29
2019-04-16T10:04:16.745Z,46.21
2019-04-16T10:06:45.183Z,47.38
2019-04-16T10:09:13.783Z,48.78
2019-04-16T10:11:42.277Z,46.15
2019-04-16T10:14:10.857Z,45.58
2019-04-16T10:16:39.448Z,45.56
2019-04-16T10:19:09.066Z,44.34
2019-04-16T10:21:37.784Z,45.28
2019-04-16T10:24:08.028Z,46.99
2019-04-16T10:26:36.461Z,48.74
2019-04-16T10:29:21.856Z,47.18
2019-04-16T10:31:50.501Z,46.18
2019-04-16T10:34:18.970Z,49.26
2019-04-16T10:36:47.507Z,48.06
2019-04-16T10:39:26.519Z,47.92
2019-04-16T10:42:02.149Z,47.42
2019-04-16T10:44:32.357Z,47.64
2019-04-16T10:47:02.520Z,48.40
2019-04-16T10:49:32.629Z,47.43
2019-04-16T10:52:05.270Z,49.19
2019-04-16T10:54:44.194Z,46.18
2019-04-16T10:57:23.438Z,47.87
2019-04-16T11:00:08.522Z,47.31
2019-04-16T11:02:44.436Z,46.14
2019-04-16T11:05:23.846Z,48.26
2019-04-16T11:07:54.042Z,46.75
2019-04-16T11:10:22.633Z,46.23
2019-04-16T11:12:51.099Z,45.31
2019-04-16T11:15:21.342Z,45.08
2019-04-16T11:17:52.298Z,45.15
2019-04-16T11:20:20.785Z,46.67
2019-04-16T11:22:49.224Z,45.67
2019-04-16T11:25:17.738Z,46.28
2019-04-16T11:27:46.228Z,45.72
2019-04-16T11:30:30.671Z,44.88
2019-04-16T11:33:00.057Z,46.90
2019-04-16T11:35:28.675Z,42.91
2019-04-16T11:37:57.153Z,43.67
2019-04-16T11:40:25.598Z,44.24
2019-04-16T11:42:54.109Z,43.79
2019-04-16T11:45:22.657Z,43.32
2019-04-16T11:47:51.129Z,42.22
2019-04-16T11:50:19.634Z,44.85
2019-04-16T11:52:48.075Z,42.23
2019-04-16T11:55:16.600Z,41.64
2019-04-16T11:57:45.054Z,41.97
2019-04-16T12:00:19.349Z,43.83
2019-04-16T12:03:08.059Z,41.91
2019-04-16T12:05:54.644Z,43.53
2019-04-16T12:08:27.480Z,44.34
2019-04-16T12:11:13.665Z,42.83
2019-04-16T12:13:43.893Z,43.48
2019-04-16T12:16:31.753Z,41.92
2019-04-16T12:19:01.928Z,42.83
2019-04-16T12:21:49.257Z,43.50
2019-04-16T12:24:21.829Z,44.66
2019-04-16T12:27:00.559Z,43.78
2019-04-16T12:29:30.703Z,43.62
2019-04-16T12:32:06.823Z,44.59
2019-04-16T12:34:39.657Z,44.22
2019-04-16T12:37:19.305Z,42.38
2019-04-16T12:39:49.424Z,43.09
2019-04-16T12:42:19.599Z,41.78
2019-04-16T12:44:53.014Z,41.90
2019-04-16T12:47:31.953Z,42.81
2019-04-16T12:50:04.752Z,41.74
2019-04-16T12:52:37.855Z,42.90
2019-04-16T12:55:25.126Z,42.67
2019-04-16T12:58:07.205Z,43.77
2019-04-16T13:00:48.969Z,42.14
2019-04-16T13:03:19.144Z,43.80
2019-04-16T13:06:05.585Z,41.54
2019-04-16T13:08:36.487Z,41.37
2019-04-16T13:11:09.546Z,40.53
2019-04-16T13:13:57.582Z,42.33
2019-04-16T13:16:27.687Z,43.87
2019-04-16T13:19:08.191Z,42.63
2019-04-16T13:21:38.455Z,43.73
2019-04-16T13:24:20.739Z,41.69
2019-04-16T13:26:50.918Z,40.67
2019-04-16T13:29:20.061Z,42.05
2019-04-16T13:31:48.580Z,42.64
2019-04-16T13:34:18.667Z,41.96
2019-04-16T13:36:47.236Z,42.09
2019-04-16T13:39:17.488Z,40.93
2019-04-16T13:41:45.940Z,42.11
2019-04-16T13:44:27.697Z,42.39
2019-04-16T13:47:01.195Z,41.23
2019-04-16T13:49:43.097Z,41.26
2019-04-16T13:52:11.537Z,42.53
2019-04-16T13:54:56.955Z,41.86
2019-04-16T13:57:27.143Z,42.14
2019-04-16T14:00:13.581Z,42.27
2019-04-16T14:02:51.047Z,41.40
2019-04-16T14:05:20.142Z,42.65
2019-04-16T14:07:48.620Z,41.68
2019-04-16T14:10:17.263Z,40.96
2019-04-16T14:12:45.768Z,42.90
2019-04-16T14:15:14.998Z,43.71
2019-04-16T14:17:52.205Z,41.28
2019-04-16T14:20:15.541Z,40.78
2019-04-16T14:22:44.025Z,41.36
2019-04-16T14:25:13.213Z,41.62
2019-04-16T14:27:41.703Z,42.01
2019-04-16T14:30:15.521Z,40.67
2019-04-16T14:32:44.139Z,41.43
2019-04-16T14:35:14.936Z,41.05
2019-04-16T14:37:43.332Z,41.61
2019-04-16T14:40:20.858Z,40.46
2019-04-16T14:42:49.784Z,41.41
2019-04-16T14:45:20.698Z,41.37
2019-04-16T14:47:49.776Z,42.26
2019-04-16T14:50:20.084Z,41.37
2019-04-16T14:52:48.551Z,41.75
2019-04-16T14:55:33.739Z,41.49
2019-04-16T14:58:20.282Z,41.51
2019-04-16T15:00:50.546Z,41.65
2019-04-16T15:03:36.877Z,42.72
2019-04-16T15:06:13.143Z,40.40
2019-04-16T15:09:01.465Z,40.05
2019-04-16T15:11:37.931Z,40.20
2019-04-16T15:14:26.093Z,40.71
2019-04-16T15:17:01.719Z,40.17
2019-04-16T15:19:31.789Z,40.21
2019-04-16T15:22:18.254Z,40.08
2019-04-16T15:25:08.034Z,41.19
2019-04-16T15:27:39.228Z,39.74
2019-04-16T15:30:28.567Z,40.16
2019-04-16T15:33:14.248Z,40.40
2019-04-16T15:35:55.683Z,40.33
2019-04-16T15:38:26.603Z,40.56
2019-04-16T15:41:00.675Z,40.45
2019-04-16T15:43:36.538Z,39.95
2019-04-16T15:46:25.277Z,40.44
2019-04-16T15:48:42.808Z,39.63
2019-04-16T15:51:14.854Z,39.88
2019-04-16T15:53:50.382Z,40.43
2019-04-16T15:56:19.521Z,39.74
2019-04-16T15:58:52.422Z,39.64
2019-04-16T16:01:22.542Z,39.49
2019-04-16T16:03:58.332Z,40.37
2019-04-16T16:06:28.451Z,39.54
2019-04-16T16:09:08.693Z,39.88
2019-04-16T16:11:39.405Z,40.44
2019-04-16T16:14:10.794Z,39.96
2019-04-16T16:16:42.089Z,39.36
2019-04-16T16:19:12.020Z,40.14
2019-04-16T16:21:39.662Z,39.04
2019-04-16T16:24:08.442Z,39.03
2019-04-16T16:26:37.302Z,38.99
2019-04-16T16:29:06.350Z,39.64
2019-04-16T16:31:35.738Z,39.49
2019-04-16T16:34:08.253Z,38.91
2019-04-16T16:36:36.516Z,39.21
2019-04-16T16:39:07.544Z,39.05
2019-04-16T16:41:36.083Z,38.18
2019-04-16T16:44:04.658Z,38.92
2019-04-16T16:46:57.184Z,39.34
2019-04-16T16:49:23.278Z,39.68
2019-04-16T16:52:05.453Z,39.22
2019-04-16T16:54:34.026Z,38.73
2019-04-16T16:57:07.744Z,39.18
2019-04-16T16:59:35.988Z,39.28
2019-04-16T17:02:10.451Z,38.15
2019-04-16T17:04:40.854Z,38.41
2019-04-16T17:07:09.696Z,39.42
2019-04-16T17:09:38.122Z,38.36
2019-04-16T17:12:06.684Z,38.45
2019-04-16T17:14:37.510Z,38.90
2019-04-16T17:17:14.389Z,39.44
2019-04-16T17:19:35.650Z,38.17
2019-04-16T17:22:04.150Z,38.61
2019-04-16T17:24:32.603Z,38.63
2019-04-16T17:27:01.086Z,38.09
2019-04-16T17:29:29.538Z,39.42
2019-04-16T17:31:58.002Z,39.83
2019-04-16T17:34:26.459Z,39.20
2019-04-16T17:36:55.807Z,39.76
2019-04-16T17:39:42.619Z,39.59
2019-04-16T17:42:12.966Z,40.07
2019-04-16T17:44:58.098Z,39.98
2019-04-16T17:47:32.873Z,40.59
2019-04-16T17:50:04.763Z,41.06
2019-04-16T17:52:46.779Z,40.82
2019-04-16T17:55:16.885Z,40.63
2019-04-16T17:57:56.005Z,41.18
2019-04-16T18:00:38.419Z,41.48
2019-04-16T18:03:24.775Z,41.71
2019-04-16T18:06:06.801Z,41.99
2019-04-16T18:11:31.312Z,42.36
2019-04-16T18:14:05.240Z,42.65
2019-04-16T18:16:33.759Z,42.76
2019-04-16T18:19:20.392Z,43.07
2019-04-16T18:21:56.147Z,43.05
2019-04-16T18:24:45.207Z,43.54
2019-04-16T18:27:29.582Z,43.63
2019-04-16T18:30:10.457Z,44.15
2019-04-16T18:32:49.779Z,44.28
2019-04-16T18:35:29.126Z,44.56
2019-04-16T18:38:11.575Z,44.71
2019-04-16T18:40:43.411Z,44.73
2019-04-16T18:43:20.712Z,44.74
2019-04-16T18:46:07.161Z,44.88
2019-04-16T18:48:44.600Z,45.04
2019-04-16T18:51:10.286Z,45.29
2019-04-16T18:53:40.290Z,45.49
2019-04-16T18:56:09.203Z,45.57
2019-04-16T18:58:41.495Z,45.75
2019-04-16T19:01:15.532Z,46.16
2019-04-16T19:03:44.129Z,46.23
2019-04-16T19:06:14.663Z,46.48
2019-04-16T19:08:43.119Z,46.56
2019-04-16T19:11:11.583Z,46.53
2019-04-16T19:13:40.203Z,46.59
2019-04-16T19:16:09.178Z,46.80
2019-04-16T19:18:43.617Z,47.02
2019-04-16T19:21:13.797Z,46.89
2019-04-16T19:23:42.255Z,47.22
2019-04-16T19:26:10.696Z,47.07
2019-04-16T19:28:40.293Z,47.17
2019-04-16T19:31:09.116Z,47.41
2019-04-16T19:33:38.540Z,47.52
2019-04-16T19:36:07.221Z,47.39
2019-04-16T19:38:39.369Z,47.58
2019-04-16T19:41:06.511Z,47.37
2019-04-16T19:43:35.701Z,47.33
2019-04-16T19:46:05.949Z,47.62
2019-04-16T19:48:36.134Z,47.84
2019-04-16T19:51:07.651Z,48.05
2019-04-16T19:53:35.032Z,47.55
2019-04-16T19:56:03.492Z,48.16
2019-04-16T19:58:32.109Z,48.33
2019-04-16T20:01:00.575Z,48.05
2019-04-16T20:03:31.359Z,48.39
2019-04-16T20:05:59.934Z,48.08
2019-04-16T20:08:34.341Z,48.32
2019-04-16T20:10:58.910Z,48.16
2019-04-16T20:13:29.011Z,48.52
2019-04-16T20:16:00.381Z,48.44
2019-04-16T20:18:31.326Z,48.53
2019-04-16T20:21:01.498Z,48.80
2019-04-16T20:23:30.439Z,48.83
2019-04-16T20:26:00.082Z,48.96
2019-04-16T20:28:29.229Z,48.96
2019-04-16T20:31:03.258Z,48.72
2019-04-16T20:33:27.949Z,48.72
2019-04-16T20:35:56.397Z,48.94
2019-04-16T20:38:29.021Z,48.81
2019-04-16T20:40:55.534Z,48.89
2019-04-16T20:43:24.120Z,49.17
2019-04-16T20:45:52.605Z,49.35
2019-04-16T20:48:21.051Z,49.56
2019-04-16T20:50:52.708Z,49.38
2019-04-16T20:53:20.014Z,49.99
2019-04-16T20:55:48.495Z,49.62
2019-04-16T20:58:16.954Z,50.11
2019-04-16T21:00:49.752Z,49.82
2019-04-16T21:03:22.180Z,49.95
2019-04-16T21:05:57.927Z,51.23
2019-04-16T21:08:24.371Z,51.46
2019-04-16T21:10:51.109Z,50.40
2019-04-16T21:13:19.556Z,50.64
2019-04-16T21:15:48.336Z,51.32
2019-04-16T21:18:16.986Z,51.44
2019-04-16T21:20:50.673Z,50.26
2019-04-16T21:23:16.055Z,50.63
2019-04-16T21:25:45.914Z,51.61
2019-04-16T21:28:22.421Z,50.58
2019-04-16T21:30:52.602Z,49.67
2019-04-16T21:36:13.579Z,48.49
2019-04-16T21:38:46.165Z,48.21
2019-04-16T21:41:15.199Z,48.43
2019-04-16T21:43:43.638Z,47.88
2019-04-16T21:46:12.115Z,46.51
2019-04-16T21:48:40.597Z,47.75
2019-04-16T21:51:09.048Z,47.57
2019-04-16T21:53:37.503Z,47.28
2019-04-16T21:56:08.253Z,46.93
2019-04-16T21:58:36.411Z,47.30
2019-04-16T22:01:06.665Z,47.14
2019-04-16T22:03:41.754Z,47.95
2019-04-16T22:06:06.976Z,46.68
2019-04-16T22:08:35.637Z,47.46
2019-04-16T22:11:04.197Z,46.89
2019-04-16T22:13:32.809Z,46.06
2019-04-16T22:16:01.332Z,46.44
2019-04-16T22:18:30.283Z,46.99
2019-04-16T22:21:00.436Z,48.09
2019-04-16T22:23:29.662Z,48.14
2019-04-16T22:26:01.441Z,47.18
2019-04-16T22:28:28.909Z,46.97
2019-04-16T22:30:57.386Z,47.21
2019-04-16T22:33:25.892Z,47.71
2019-04-16T22:35:54.346Z,47.43
2019-04-16T22:38:22.786Z,47.74
2019-04-16T22:40:54.913Z,48.52
2019-04-16T22:43:43.418Z,49.08
2019-04-16T22:46:18.971Z,50.65
2019-04-16T22:48:57.720Z,50.26
2019-04-16T22:51:26.689Z,50.06
2019-04-16T22:53:55.226Z,51.03
2019-04-16T22:56:28.146Z,51.76
2019-04-16T22:58:56.258Z,51.00
2019-04-16T23:01:29.916Z,51.57
2019-04-16T23:03:58.485Z,51.01
2019-04-16T23:06:27.016Z,51.94
2019-04-16T23:08:55.501Z,51.52
2019-04-16T23:11:24.550Z,51.77
2019-04-16T23:13:53.020Z,51.31
2019-04-16T23:16:21.538Z,51.20
2019-04-16T23:18:50.174Z,50.68
2019-04-16T23:21:18.582Z,50.20
2019-04-16T23:23:47.692Z,49.92
2019-04-16T23:26:17.342Z,50.33
2019-04-16T23:28:45.813Z,50.97
2019-04-16T23:31:14.286Z,50.62
2019-04-16T23:33:42.752Z,50.68
2019-04-16T23:36:14.998Z,51.56
2019-04-16T23:38:41.475Z,52.55
2019-04-16T23:41:15.344Z,51.44
2019-04-16T23:43:44.136Z,51.85
2019-04-16T23:46:30.490Z,52.26
2019-04-16T23:49:00.563Z,51.09
2019-04-16T23:51:30.689Z,52.46
2019-04-16T23:54:00.887Z,51.17
2019-04-16T23:56:31.046Z,52.42
2019-04-16T23:59:02.616Z,51.58
